Time;durP1;ratioP1;P1;durP2;ratioP2;P2;SDS_P1;SDS_P2;PMS_P1;PMS_P2;Temp;Humidity;BMP_temperature;BMP_pressure;BME280_temperature;BME280_humidity;BME280_pressure;Samples;Min_cycle;Max_cycle;Signal;HPM_P1;HPM_P2
2023/06/07 00:02:12;;;;;;;5.38;4.88;;;;;;;15.10;100.00;98676.00;15285887;19;20017;-44
2023/06/07 00:14:03;;;;;;;5.10;4.60;;;;;;;15.22;100.00;98659.28;15270264;19;20027;-45
2023/06/07 00:19:52;;;;;;;5.47;4.97;;;;;;;15.27;100.00;98669.56;15286421;19;20018;-42
2023/06/07 00:25:59;;;;;;;6.78;6.07;;;;;;;15.34;100.00;98649.66;15285912;19;20018;-45
2023/06/07 00:32:05;;;;;;;10.27;9.27;;;;;;;15.33;100.00;98674.25;15283650;19;20035;-44
2023/06/07 00:38:08;;;;;;;9.27;8.43;;;;;;;15.35;100.00;98675.72;15280247;19;20708;-43
2023/06/07 00:43:40;;;;;;;11.57;10.48;;;;;;;15.34;100.00;98681.38;15288144;19;20024;-43
2023/06/07 00:49:46;;;;;;;13.05;11.85;;;;;;;15.39;100.00;98687.09;15289178;19;20014;-44
2023/06/07 00:55:32;;;;;;;12.80;11.55;;;;;;;15.40;100.00;98703.19;15287343;19;20077;-42
2023/06/07 01:01:43;;;;;;;16.17;14.55;;;;;;;15.37;100.00;98713.56;15290692;19;20026;-42
2023/06/07 01:07:24;;;;;;;16.15;14.48;;;;;;;15.41;100.00;98718.44;15290213;19;20031;-47
2023/06/07 01:13:29;;;;;;;17.33;15.63;;;;;;;15.43;100.00;98728.28;15286024;19;20078;-42
2023/06/07 01:25:59;;;;;;;19.20;17.35;;;;;;;15.50;100.00;98730.06;15287219;19;20022;-45
2023/06/07 01:32:36;;;;;;;17.88;16.08;;;;;;;15.52;100.00;98724.44;15274052;19;20026;-42
2023/06/07 01:38:55;;;;;;;21.25;19.05;;;;;;;15.49;100.00;98725.66;15287152;19;20090;-42
2023/06/07 01:44:56;;;;;;;19.60;17.70;;;;;;;15.48;100.00;98721.25;15271036;19;20086;-41
2023/06/07 01:50:55;;;;;;;18.63;16.77;;;;;;;15.48;100.00;98736.69;15279453;19;20467;-47
2023/06/07 01:56:28;;;;;;;17.67;15.98;;;;;;;15.45;100.00;98743.34;15282968;19;20032;-42
2023/06/07 02:02:04;;;;;;;18.33;16.38;;;;;;;15.45;100.00;98743.34;15281543;19;20124;-42
2023/06/07 02:07:32;;;;;;;18.00;15.95;;;;;;;15.39;100.00;98736.78;15282306;19;20024;-42
2023/06/07 02:12:58;;;;;;;16.67;15.02;;;;;;;15.40;100.00;98735.75;15273322;19;20018;-41
2023/06/07 02:18:27;;;;;;;14.70;13.20;;;;;;;15.36;100.00;98728.19;15279023;19;20590;-41
2023/06/07 02:23:52;;;;;;;11.88;10.10;;;;;;;15.33;100.00;98713.09;15280931;19;20031;-43
2023/06/07 02:29:17;;;;;;;9.18;8.18;;;;;;;15.31;100.00;98692.59;15276072;19;20077;-42
2023/06/07 02:34:44;;;;;;;6.15;5.50;;;;;;;15.31;100.00;98671.72;15281293;19;20069;-43
2023/06/07 02:40:11;;;;;;;5.32;4.82;;;;;;;15.31;100.00;98660.88;15279116;19;20092;-42
2023/06/07 02:45:37;;;;;;;4.20;3.80;;;;;;;15.29;100.00;98637.66;15272680;19;20018;-44
2023/06/07 02:51:04;;;;;;;3.60;3.30;;;;;;;15.29;100.00;98632.22;15273621;19;20475;-42
2023/06/07 02:56:32;;;;;;;3.30;3.00;;;;;;;15.29;100.00;98624.91;15283353;19;20022;-42
2023/06/07 03:01:56;;;;;;;3.25;2.60;;;;;;;15.26;100.00;98617.13;15281736;19;20014;-42
2023/06/07 03:07:25;;;;;;;2.70;2.50;;;;;;;15.26;100.00;98614.44;15280331;19;20018;-41
2023/06/07 03:12:52;;;;;;;3.50;2.58;;;;;;;15.26;100.00;98619.84;15272394;19;20015;-42
2023/06/07 03:18:19;;;;;;;3.15;2.40;;;;;;;15.25;100.00;98618.16;15274224;19;20041;-41
2023/06/07 03:23:55;;;;;;;3.22;2.30;;;;;;;15.26;100.00;98619.84;15274925;19;20026;-41
2023/06/07 03:29:20;;;;;;;3.05;2.45;;;;;;;15.23;100.00;98615.66;15276800;19;20532;-41
2023/06/07 03:34:45;;;;;;;3.28;2.10;;;;;;;15.24;100.00;98605.63;15278456;19;20386;-41
2023/06/07 03:40:14;;;;;;;3.60;2.03;;;;;;;15.21;100.00;98617.69;15280185;19;20024;-41
2023/06/07 03:45:47;;;;;;;2.47;2.17;;;;;;;15.21;100.00;98614.16;15277078;19;20041;-40
2023/06/07 03:51:12;;;;;;;4.07;2.13;;;;;;;15.20;100.00;98605.16;15274553;19;20015;-41
2023/06/07 03:56:42;;;;;;;3.67;2.30;;;;;;;15.19;100.00;98603.47;15294073;19;20029;-41
2023/06/07 04:02:08;;;;;;;2.47;2.00;;;;;;;15.17;100.00;98593.84;15291556;19;20018;-41
2023/06/07 04:07:32;;;;;;;2.97;2.00;;;;;;;15.16;100.00;98598.44;15293891;19;20022;-41
2023/06/07 04:13:01;;;;;;;2.35;1.90;;;;;;;15.18;100.00;98606.38;15286330;19;20022;-41
2023/06/07 04:18:26;;;;;;;2.60;2.10;;;;;;;15.19;100.00;98599.94;15292408;19;20491;-41
2023/06/07 04:23:57;;;;;;;2.45;1.80;;;;;;;15.21;100.00;98611.44;15280015;19;20074;-41
2023/06/07 04:29:25;;;;;;;2.57;1.93;;;;;;;15.24;100.00;98611.06;15287046;19;20019;-41
2023/06/07 04:34:51;;;;;;;2.15;1.90;;;;;;;15.26;100.00;98609.00;15286724;19;20033;-42
2023/06/07 04:40:17;;;;;;;2.60;1.90;;;;;;;15.29;100.00;98619.50;15290175;19;20022;-42
2023/06/07 04:45:46;;;;;;;4.68;2.08;;;;;;;15.28;100.00;98611.53;15286783;19;20018;-41
2023/06/07 04:51:13;;;;;;;3.20;2.10;;;;;;;15.22;100.00;98624.81;15286912;19;20045;-42
2023/06/07 04:56:38;;;;;;;2.80;1.90;;;;;;;15.23;100.00;98622.94;15282581;19;20402;-42
2023/06/07 05:02:06;;;;;;;2.38;2.08;;;;;;;15.30;100.00;98623.91;15287504;19;20019;-42
2023/06/07 05:07:32;;;;;;;4.95;2.50;;;;;;;15.36;100.00;98628.56;15287744;19;20034;-41
2023/06/07 05:12:57;;;;;;;2.10;1.88;;;;;;;15.41;100.00;98623.41;15284433;19;20375;-43
2023/06/07 05:18:25;;;;;;;3.45;2.10;;;;;;;15.43;100.00;98619.69;15284566;19;20082;-41
2023/06/07 05:23:56;;;;;;;3.25;1.75;;;;;;;15.44;100.00;98621.38;15282827;19;20022;-41
2023/06/07 05:29:21;;;;;;;4.10;1.80;;;;;;;15.42;100.00;98635.13;15275866;19;20809;-42
2023/06/07 05:34:49;;;;;;;3.00;1.77;;;;;;;15.48;100.00;98645.25;15284815;19;20041;-42
2023/06/07 05:40:17;;;;;;;2.30;1.70;;;;;;;15.56;100.00;98641.59;15285854;19;20019;-42
2023/06/07 05:45:41;;;;;;;2.35;1.60;;;;;;;15.63;100.00;98645.22;15283624;19;20010;-42
2023/06/07 05:51:10;;;;;;;2.97;2.00;;;;;;;15.75;100.00;98648.31;15286262;19;20018;-41
2023/06/07 05:56:34;;;;;;;2.30;1.75;;;;;;;15.86;100.00;98653.28;15287557;19;20045;-41
2023/06/07 06:01:59;;;;;;;3.15;1.90;;;;;;;16.01;100.00;98661.41;15276737;19;20022;-40
2023/06/07 06:07:27;;;;;;;2.53;2.10;;;;;;;16.12;100.00;98642.94;15286351;19;20355;-42
2023/06/07 06:12:52;;;;;;;2.58;2.22;;;;;;;16.13;100.00;98615.53;15283669;19;20089;-41
2023/06/07 06:18:17;;;;;;;2.78;2.45;;;;;;;16.17;100.00;98632.28;15284812;19;20255;-41
2023/06/07 06:23:45;;;;;;;5.38;2.58;;;;;;;16.24;100.00;98633.22;15283861;19;20029;-41
2023/06/07 06:29:10;;;;;;;3.80;2.60;;;;;;;16.26;100.00;98636.59;15285774;19;20021;-42
2023/06/07 06:34:35;;;;;;;3.30;2.40;;;;;;;16.35;100.00;98650.06;15272801;19;20082;-41
2023/06/07 06:40:04;;;;;;;3.28;2.83;;;;;;;16.32;100.00;98624.94;15285609;19;20015;-41
2023/06/07 06:45:29;;;;;;;4.47;2.60;;;;;;;16.25;100.00;98647.66;15281096;19;20053;-41
2023/06/07 06:50:53;;;;;;;3.40;2.40;;;;;;;16.28;100.00;98661.72;15281616;19;20011;-40
2023/06/07 06:56:22;;;;;;;3.25;2.30;;;;;;;16.38;100.00;98671.44;15279294;19;20082;-41
2023/06/07 07:01:56;;;;;;;3.35;2.53;;;;;;;16.51;100.00;98674.31;15279877;19;20018;-41
2023/06/07 07:07:22;;;;;;;3.47;2.50;;;;;;;16.64;100.00;98671.69;15273289;19;20033;-40
2023/06/07 07:12:51;;;;;;;2.83;2.20;;;;;;;16.72;100.00;98673.44;15281718;19;20103;-41
2023/06/07 07:18:20;;;;;;;3.42;2.40;;;;;;;16.81;100.00;98682.31;15281531;19;20897;-41
2023/06/07 07:23:46;;;;;;;4.28;2.92;;;;;;;16.88;100.00;98672.31;15280095;19;20426;-42
2023/06/07 07:29:14;;;;;;;3.97;2.70;;;;;;;16.88;100.00;98666.88;15273648;19;20037;-42
2023/06/07 07:34:39;;;;;;;3.20;2.72;;;;;;;17.07;100.00;98681.72;15273958;19;20077;-41
2023/06/07 07:40:05;;;;;;;6.05;3.50;;;;;;;17.19;100.00;98673.88;15276495;19;20011;-42
2023/06/07 07:45:32;;;;;;;3.67;3.33;;;;;;;17.21;100.00;98674.53;15278220;19;20490;-41
2023/06/07 07:50:59;;;;;;;3.58;3.25;;;;;;;17.21;100.00;98669.09;15280773;19;20018;-42
2023/06/07 07:56:24;;;;;;;3.50;3.20;;;;;;;17.25;100.00;98673.06;15280755;19;20015;-42
2023/06/07 08:01:52;;;;;;;4.65;3.15;;;;;;;17.30;100.00;98671.66;15279194;19;20042;-42
2023/06/07 08:07:17;;;;;;;2.95;2.65;;;;;;;17.39;100.00;98667.72;15275802;19;20018;-43
2023/06/07 08:12:41;;;;;;;3.20;2.55;;;;;;;17.47;100.00;98658.56;15274894;19;20021;-42
2023/06/07 08:18:08;;;;;;;3.25;2.30;;;;;;;17.44;100.00;98642.59;15280282;19;20011;-44
2023/06/07 08:23:33;;;;;;;3.45;2.40;;;;;;;17.52;100.00;98651.47;15276089;19;20041;-41
2023/06/07 08:28:57;;;;;;;3.47;2.50;;;;;;;17.38;100.00;98657.88;15278447;19;20557;-42
2023/06/07 08:34:27;;;;;;;3.80;2.83;;;;;;;17.42;100.00;98653.72;15273733;19;20019;-41
2023/06/07 08:39:53;;;;;;;2.92;2.13;;;;;;;17.53;100.00;98649.56;15278580;19;20052;-41
2023/06/07 08:45:18;;;;;;;2.78;2.30;;;;;;;17.51;100.00;98647.06;15285048;19;20020;-41
2023/06/07 08:50:46;;;;;;;3.58;2.50;;;;;;;17.40;100.00;98647.63;15286023;19;20040;-41
2023/06/07 08:56:12;;;;;;;3.55;2.28;;;;;;;17.21;100.00;98650.03;15291829;19;20015;-41
2023/06/07 09:01:38;;;;;;;2.33;2.13;;;;;;;17.25;100.00;98645.84;15291885;19;20018;-40
2023/06/07 09:07:07;;;;;;;3.25;2.08;;;;;;;17.34;100.00;98646.53;15290655;19;20028;-41
2023/06/07 09:12:35;;;;;;;2.30;2.13;;;;;;;17.39;100.00;98635.03;15284435;19;20370;-40
2023/06/07 09:18:02;;;;;;;2.83;2.45;;;;;;;17.45;100.00;98638.84;15286735;19;20021;-43
2023/06/07 09:23:30;;;;;;;3.03;2.20;;;;;;;17.51;100.00;98647.06;15287718;19;20042;-42
2023/06/07 09:29:02;;;;;;;2.70;2.10;;;;;;;17.59;100.00;98648.78;15289598;19;20022;-41
2023/06/07 09:34:30;;;;;;;3.05;2.22;;;;;;;17.80;100.00;98656.03;15287307;19;20010;-41
2023/06/07 09:39:59;;;;;;;2.45;2.05;;;;;;;17.93;100.00;98662.56;15287957;19;20019;-43
2023/06/07 09:45:25;;;;;;;2.50;1.83;;;;;;;18.06;100.00;98648.19;15279827;19;20029;-42
2023/06/07 09:51:04;;;;;;;2.97;2.00;;;;;;;18.24;100.00;98663.97;15284192;19;20727;-42
2023/06/07 09:56:31;;;;;;;5.13;2.13;;;;;;;18.46;100.00;98656.47;15287833;19;20010;-43
2023/06/07 10:01:56;;;;;;;3.35;2.10;;;;;;;18.65;100.00;98660.25;15285371;19;20014;-42
2023/06/07 10:07:23;;;;;;;2.17;1.90;;;;;;;18.83;100.00;98661.56;15286073;19;20425;-45
2023/06/07 10:12:52;;;;;;;2.63;2.20;;;;;;;19.04;100.00;98655.91;15285513;19;20014;-47
2023/06/07 10:18:21;;;;;;;2.65;1.90;;;;;;;19.24;100.00;98650.44;15282257;19;20019;-42
2023/06/07 10:23:53;;;;;;;3.95;2.00;;;;;;;19.53;100.00;98645.53;15282818;19;20829;-44
2023/06/07 10:29:31;;;;;;;2.40;1.73;;;;;;;19.77;100.00;98639.59;15284312;19;20368;-43
2023/06/07 10:34:58;;;;;;;1.80;1.65;;;;;;;19.97;100.00;98629.44;15282792;19;20021;-44
2023/06/07 10:40:25;;;;;;;2.00;1.73;;;;;;;20.17;100.00;98628.50;15282941;19;20021;-44
2023/06/07 10:45:53;;;;;;;3.95;1.90;;;;;;;20.38;100.00;98618.28;15281603;19;20018;-44
2023/06/07 10:51:19;;;;;;;2.08;1.58;;;;;;;20.62;100.00;98622.97;15273416;19;20297;-41
2023/06/07 10:56:46;;;;;;;3.38;1.52;;;;;;;20.91;100.00;98623.38;15284125;19;20307;-42
2023/06/07 11:02:26;;;;;;;3.00;1.98;;;;;;;20.97;100.00;98604.41;15278631;19;20354;-44
2023/06/07 11:07:51;;;;;;;2.35;1.60;;;;;;;21.28;100.00;98606.19;15281361;19;20010;-42
2023/06/07 11:13:16;;;;;;;2.30;1.50;;;;;;;21.17;100.00;98607.78;15280816;19;20117;-42
2023/06/07 11:19:07;;;;;;;1.45;1.35;;;;;;;21.11;100.00;98605.91;15283354;19;20018;-44
2023/06/07 11:24:35;;;;;;;1.75;1.58;;;;;;;21.08;100.00;98601.75;15267435;19;20019;-42
2023/06/07 11:30:03;;;;;;;2.25;1.30;;;;;;;20.84;100.00;98599.84;15279860;19;20017;-42
2023/06/07 11:35:32;;;;;;;1.80;1.20;;;;;;;20.98;100.00;98597.84;15278328;19;20015;-44
2023/06/07 11:40:58;;;;;;;2.50;1.30;;;;;;;21.21;100.00;98595.31;15279061;19;20025;-43
2023/06/07 11:46:23;;;;;;;1.67;1.30;;;;;;;21.51;100.00;98578.09;15280260;19;20037;-42
2023/06/07 11:51:50;;;;;;;2.85;1.20;;;;;;;21.83;100.00;98588.91;15277951;19;20362;-45
2023/06/07 11:57:16;;;;;;;4.00;1.20;;;;;;;22.12;100.00;98575.47;15272401;19;20016;-44
2023/06/07 12:02:41;;;;;;;1.63;1.10;;;;;;;22.05;100.00;98577.44;15277173;19;20016;-42
2023/06/07 12:08:13;;;;;;;2.63;1.20;;;;;;;21.67;100.00;98586.81;15278766;19;20090;-42
2023/06/07 12:13:45;;;;;;;1.80;1.13;;;;;;;22.01;100.00;98581.72;15280087;19;20025;-43
2023/06/07 12:19:10;;;;;;;3.05;1.30;;;;;;;21.74;96.68;98578.50;15296153;19;20009;-44
2023/06/07 12:24:41;;;;;;;2.58;1.15;;;;;;;21.72;100.00;98583.38;15285213;19;20018;-44
2023/06/07 12:30:07;;;;;;;2.08;1.60;;;;;;;21.46;100.00;98586.16;15287975;19;20476;-42
2023/06/07 12:35:32;;;;;;;1.95;1.50;;;;;;;21.96;100.00;98578.84;15288319;19;20021;-43
2023/06/07 12:41:00;;;;;;;2.72;1.63;;;;;;;22.22;100.00;98577.66;15290923;19;20074;-44
2023/06/07 12:46:24;;;;;;;5.03;1.70;;;;;;;22.54;100.00;98580.16;15292302;19;20022;-45
2023/06/07 12:51:49;;;;;;;2.88;1.58;;;;;;;22.74;100.00;98587.22;15289764;19;20053;-43
2023/06/07 12:57:17;;;;;;;3.63;1.80;;;;;;;22.83;100.00;98582.22;15286192;19;20020;-45
2023/06/07 13:02:43;;;;;;;3.92;1.98;;;;;;;23.21;100.00;98572.69;15285759;19;20019;-44
2023/06/07 13:08:08;;;;;;;2.28;1.80;;;;;;;23.32;100.00;98573.75;15291676;19;20114;-44
2023/06/07 13:13:35;;;;;;;3.00;1.80;;;;;;;23.51;100.00;98575.28;15287149;19;20037;-45
2023/06/07 13:19:00;;;;;;;3.58;1.90;;;;;;;23.45;100.00;98573.47;15291434;19;20463;-43
2023/06/07 13:24:26;;;;;;;4.22;2.25;;;;;;;23.60;100.00;98570.22;15286653;19;20023;-43
2023/06/07 13:29:55;;;;;;;2.22;2.00;;;;;;;23.67;100.00;98570.09;15283055;19;20459;-45
2023/06/07 13:35:19;;;;;;;3.75;1.83;;;;;;;23.69;100.00;98560.53;15282812;19;20041;-43
2023/06/07 13:40:49;;;;;;;3.42;2.38;;;;;;;23.67;100.00;98564.59;15289624;19;20010;-43
2023/06/07 13:46:18;;;;;;;5.13;2.17;;;;;;;23.68;100.00;98549.75;15285081;19;21285;-43
2023/06/07 13:51:44;;;;;;;4.38;2.20;;;;;;;23.73;100.00;98549.88;15286790;19;20599;-44
2023/06/07 13:57:10;;;;;;;3.85;2.30;;;;;;;23.83;100.00;98536.31;15287870;19;20846;-43
2023/06/07 14:02:37;;;;;;;6.32;2.45;;;;;;;23.79;100.00;98535.13;15276511;19;20102;-47
2023/06/07 14:08:01;;;;;;;3.13;1.83;;;;;;;23.91;100.00;98526.84;15281968;19;20392;-51
2023/06/07 14:13:27;;;;;;;2.80;2.00;;;;;;;23.97;100.00;98536.88;15282375;19;20037;-49
2023/06/07 14:18:54;;;;;;;8.30;2.17;;;;;;;24.25;100.00;98526.06;15285902;19;20373;-49
2023/06/07 14:24:26;;;;;;;4.43;2.13;;;;;;;24.43;100.00;98525.88;15281263;19;20024;-51
2023/06/07 14:29:50;;;;;;;;;;;;;;;24.64;100.00;98517.94;15284257;19;20023;-48
2023/06/07 14:35:18;;;;;;;3.25;1.80;;;;;;;24.91;100.00;98512.56;15274416;19;19986;-49
2023/06/07 14:40:44;;;;;;;3.97;1.70;;;;;;;25.19;100.00;98519.03;15277968;19;20017;-50
2023/06/07 14:46:09;;;;;;;3.72;2.08;;;;;;;25.32;100.00;98512.31;15283561;19;20017;-53
2023/06/07 14:51:36;;;;;;;3.15;1.70;;;;;;;25.70;99.08;98512.50;15282386;19;20018;-49
2023/06/07 14:57:01;;;;;;;3.20;1.80;;;;;;;25.85;98.02;98509.94;15274327;19;20069;-48
2023/06/07 15:02:26;;;;;;;8.63;1.98;;;;;;;26.20;90.71;98504.22;15280658;19;20010;-52
2023/06/07 15:07:53;;;;;;;5.07;1.60;;;;;;;26.36;94.03;98508.78;15273056;19;20021;-50
2023/06/07 15:13:18;;;;;;;1.98;1.50;;;;;;;26.49;87.62;98503.94;15275353;19;20028;-49
2023/06/07 15:18:43;;;;;;;3.60;1.50;;;;;;;26.42;90.28;98502.22;15283654;19;20011;-51
2023/06/07 15:24:10;;;;;;;4.18;1.40;;;;;;;26.52;81.58;98492.34;15277148;19;20077;-49
2023/06/07 15:29:42;;;;;;;3.42;1.45;;;;;;;26.49;84.75;98495.66;15280330;19;20069;-51
2023/06/07 15:35:08;;;;;;;2.80;1.40;;;;;;;26.27;86.00;98480.00;15278338;19;20486;-48
2023/06/07 15:40:35;;;;;;;3.30;1.50;;;;;;;26.48;86.11;98480.16;15273246;19;20023;-50
2023/06/07 15:46:00;;;;;;;5.85;1.33;;;;;;;26.70;86.43;98478.09;15272720;19;20470;-52
2023/06/07 15:51:24;;;;;;;3.50;1.50;;;;;;;26.85;87.85;98476.59;15293893;19;20840;-49
2023/06/07 15:56:51;;;;;;;7.10;1.70;;;;;;;26.69;85.50;98456.28;15290554;19;20017;-52
2023/06/07 16:02:18;;;;;;;2.70;1.50;;;;;;;26.85;86.22;98466.34;15294569;19;20018;-49
2023/06/07 16:07:42;;;;;;;3.45;1.38;;;;;;;26.44;83.39;98472.41;15294659;19;20017;-49
2023/06/07 16:13:10;;;;;;;3.63;1.35;;;;;;;26.39;84.54;98472.38;15286456;19;20023;-49
2023/06/07 16:18:36;;;;;;;2.13;1.10;;;;;;;26.33;79.48;98464.31;15294577;19;20052;-49
2023/06/07 16:24:02;;;;;;;2.50;1.15;;;;;;;26.10;82.70;98467.16;15290263;19;20016;-49
2023/06/07 16:29:37;;;;;;;3.38;1.10;;;;;;;25.66;77.02;98457.00;15288229;19;20007;-49
2023/06/07 16:35:03;;;;;;;3.08;1.27;;;;;;;25.60;78.46;98451.69;15288834;19;20025;-49
2023/06/07 16:40:28;;;;;;;1.92;1.10;;;;;;;25.47;83.81;98451.00;15291797;19;20025;-48
2023/06/07 16:45:56;;;;;;;6.53;1.20;;;;;;;25.17;77.47;98435.75;15279777;19;20022;-46
2023/06/07 16:51:20;;;;;;;1.83;1.10;;;;;;;24.86;77.17;98440.88;15290223;19;20022;-48
2023/06/07 16:56:45;;;;;;;1.65;1.15;;;;;;;24.62;73.24;98437.47;15284850;19;20014;-50
2023/06/07 17:02:12;;;;;;;3.40;1.30;;;;;;;24.39;76.30;98447.59;15286298;19;20029;-46
2023/06/07 17:07:37;;;;;;;1.20;1.00;;;;;;;24.28;75.97;98443.84;15288917;19;20010;-48
2023/06/07 17:13:01;;;;;;;3.63;1.10;;;;;;;24.22;79.51;98444.00;15286167;19;20069;-46
2023/06/07 17:18:28;;;;;;;1.70;0.90;;;;;;;23.93;78.78;98452.28;15274787;19;20021;-48
2023/06/07 17:23:53;;;;;;;1.95;1.00;;;;;;;23.52;83.25;98450.44;15284066;19;20091;-48
2023/06/07 17:29:24;;;;;;;2.88;1.25;;;;;;;23.17;88.80;98461.53;15281545;19;20118;-49
2023/06/07 17:34:51;;;;;;;2.97;1.17;;;;;;;22.93;92.59;98461.56;15283312;19;20011;-48
2023/06/07 17:40:18;;;;;;;1.88;1.10;;;;;;;22.72;96.57;98463.88;15283305;19;20010;-48
2023/06/07 17:45:43;;;;;;;1.90;1.20;;;;;;;22.57;100.00;98471.75;15282932;19;20017;-49
2023/06/07 17:51:10;;;;;;;1.42;1.08;;;;;;;22.37;100.00;98466.56;15275152;19;20095;-48
2023/06/07 17:56:35;;;;;;;1.33;1.10;;;;;;;22.18;100.00;98477.66;15261731;19;20018;-48
2023/06/07 18:02:03;;;;;;;1.20;1.02;;;;;;;22.10;100.00;98476.06;15283999;19;20024;-47
2023/06/07 18:07:30;;;;;;;1.73;1.00;;;;;;;21.96;100.00;98471.84;15286420;19;20017;-51
2023/06/07 18:12:55;;;;;;;1.20;1.10;;;;;;;21.84;100.00;98472.66;15282417;19;20013;-49
2023/06/07 18:18:20;;;;;;;1.60;1.23;;;;;;;21.71;100.00;98472.84;15286858;19;20045;-78
2023/06/07 18:23:48;;;;;;;1.45;1.15;;;;;;;21.55;100.00;98480.66;15285929;19;20053;-77
2023/06/07 18:29:14;;;;;;;1.77;1.27;;;;;;;21.44;100.00;98469.59;15291599;19;20019;-77
2023/06/07 18:34:39;;;;;;;1.40;1.30;;;;;;;21.24;100.00;98467.97;15291551;19;20090;-76
2023/06/07 18:40:08;;;;;;;1.50;1.20;;;;;;;21.08;100.00;98469.44;15293976;19;20006;-77
2023/06/07 18:45:38;;;;;;;3.78;1.50;;;;;;;20.91;100.00;98464.53;15299007;19;20023;-76
2023/06/07 18:51:09;;;;;;;1.58;1.30;;;;;;;20.77;100.00;98460.28;15352232;19;20010;-76
2023/06/07 18:56:28;;;;;;;3.10;1.52;;;;;;;20.56;100.00;98459.63;15311789;19;20010;-76
2023/06/07 19:01:55;;;;;;;2.33;1.50;;;;;;;20.39;100.00;98458.53;15284933;19;20490;-77
2023/06/07 19:07:19;;;;;;;3.60;1.50;;;;;;;20.25;100.00;98468.72;15287238;19;20022;-77
2023/06/07 19:12:46;;;;;;;2.03;1.52;;;;;;;20.17;100.00;98475.31;15282632;19;20074;-77
2023/06/07 19:18:18;;;;;;;2.22;1.55;;;;;;;20.06;100.00;98473.28;15288589;19;20495;-78
2023/06/07 19:23:44;;;;;;;2.00;1.40;;;;;;;19.94;100.00;98471.28;15284057;19;20014;-78
2023/06/07 19:29:12;;;;;;;2.50;1.40;;;;;;;19.82;100.00;98471.13;15310191;19;20014;-78
2023/06/07 19:34:39;;;;;;;2.05;1.30;;;;;;;19.71;100.00;98467.19;15324059;19;20017;-77
2023/06/07 19:40:03;;;;;;;3.08;1.40;;;;;;;19.62;100.00;98473.97;15285281;19;20019;-79
2023/06/07 19:45:30;;;;;;;1.98;1.45;;;;;;;19.55;100.00;98478.66;15283822;19;20041;-78
2023/06/07 19:50:56;;;;;;;3.70;1.33;;;;;;;19.45;100.00;98479.09;15282922;19;20014;-77
2023/06/07 19:56:21;;;;;;;2.88;1.50;;;;;;;19.33;100.00;98486.31;15275514;19;20015;-77
2023/06/07 20:01:49;;;;;;;2.35;1.42;;;;;;;19.19;100.00;98491.81;15278647;19;20010;-78
2023/06/07 20:07:15;;;;;;;2.83;1.50;;;;;;;19.05;100.00;98488.31;15283439;19;20386;-77
2023/06/07 20:12:39;;;;;;;2.95;1.33;;;;;;;18.99;100.00;98493.78;15284085;19;20016;-77
2023/06/07 20:18:06;;;;;;;1.73;1.40;;;;;;;18.89;100.00;98486.00;15278562;19;20475;-78
2023/06/07 20:23:31;;;;;;;1.77;1.60;;;;;;;18.79;100.00;98483.72;15282170;19;20016;-77
2023/06/07 20:28:56;;;;;;;4.05;1.52;;;;;;;18.66;100.00;98479.13;15272256;19;20340;-77
2023/06/07 20:34:24;;;;;;;2.45;1.60;;;;;;;18.55;100.00;98485.22;15281563;19;20016;-77
2023/06/07 20:39:49;;;;;;;2.40;1.50;;;;;;;18.40;100.00;98475.38;15296399;19;20511;-76
2023/06/07 20:45:25;;;;;;;2.72;1.75;;;;;;;18.33;100.00;98471.81;15292817;19;20422;-77
2023/06/07 20:50:57;;;;;;;2.92;1.80;;;;;;;18.25;100.00;98482.94;15294967;19;20503;-78
2023/06/07 20:56:22;;;;;;;5.35;1.70;;;;;;;18.22;100.00;98488.81;15291663;19;20369;-77
2023/06/07 21:01:51;;;;;;;1.75;1.65;;;;;;;18.13;100.00;98480.84;15283935;19;20242;-77
2023/06/07 21:07:18;;;;;;;2.78;1.70;;;;;;;18.04;100.00;98484.81;15289683;19;20090;-77
2023/06/07 21:12:43;;;;;;;2.58;1.70;;;;;;;17.97;100.00;98489.41;15294286;19;20011;-77
2023/06/07 21:18:14;;;;;;;1.70;1.60;;;;;;;17.91;100.00;98490.22;15289035;19;20035;-77
2023/06/07 21:23:41;;;;;;;2.08;1.83;;;;;;;17.85;100.00;98487.25;15294785;19;20018;-77
2023/06/07 21:29:06;;;;;;;3.88;1.88;;;;;;;17.88;100.00;98502.34;15296469;19;20026;-77
2023/06/07 21:34:31;;;;;;;2.63;1.67;;;;;;;17.87;100.00;98493.34;15288135;19;20025;-77
2023/06/07 21:39:59;;;;;;;3.90;1.58;;;;;;;17.89;100.00;98500.47;15290192;19;20014;-77
2023/06/07 21:45:25;;;;;;;3.47;1.80;;;;;;;17.88;100.00;98502.34;15289449;19;20010;-77
2023/06/07 21:50:50;;;;;;;1.73;1.48;;;;;;;17.86;100.00;98501.75;15294120;19;20018;-78
2023/06/07 21:56:18;;;;;;;2.17;1.80;;;;;;;17.82;100.00;98497.75;15294438;19;20007;-78
2023/06/07 22:01:43;;;;;;;3.22;1.70;;;;;;;17.71;100.00;98501.91;15303137;19;20470;-78
2023/06/07 22:07:08;;;;;;;3.08;1.77;;;;;;;17.63;100.00;98499.38;15298078;19;20010;-79
2023/06/07 22:12:36;;;;;;;2.90;1.63;;;;;;;17.60;100.00;98488.88;15295885;19;20799;-77
2023/06/07 22:18:08;;;;;;;2.75;1.60;;;;;;;17.51;100.00;98502.69;15295029;19;20031;-78
2023/06/07 22:23:33;;;;;;;2.72;1.80;;;;;;;17.50;100.00;98483.84;15296842;19;20010;-78
2023/06/07 22:29:01;;;;;;;2.80;1.70;;;;;;;17.44;100.00;98487.38;15294751;19;20078;-78
2023/06/07 22:34:28;;;;;;;1.90;1.70;;;;;;;17.38;100.00;98487.16;15295906;19;20022;-78
2023/06/07 22:39:46;;;;;;;1.83;1.70;;;;;;;17.34;100.00;98482.31;15288160;19;20086;-78
2023/06/07 22:45:16;;;;;;;3.20;1.60;;;;;;;17.29;100.00;98484.81;15289540;19;20501;-78
2023/06/07 22:50:50;;;;;;;1.70;1.60;;;;;;;17.22;100.00;98485.63;15319797;19;20047;-78
2023/06/07 22:56:15;;;;;;;2.20;1.80;;;;;;;17.19;100.00;98491.47;15353111;19;20014;-78
2023/06/07 23:01:46;;;;;;;2.65;1.90;;;;;;;17.18;100.00;98487.06;15287050;19;20014;-77
2023/06/07 23:07:10;;;;;;;1.90;1.80;;;;;;;17.15;100.00;98483.91;15288803;19;20018;-77
2023/06/07 23:12:36;;;;;;;2.45;2.10;;;;;;;17.13;100.00;98480.53;15280781;19;20014;-77
2023/06/07 23:18:04;;;;;;;3.95;1.98;;;;;;;17.05;100.00;98482.38;15279606;19;20041;-76
2023/06/07 23:23:37;;;;;;;2.65;2.00;;;;;;;17.02;100.00;98485.53;15280903;19;20020;-76
2023/06/07 23:29:02;;;;;;;2.20;2.00;;;;;;;17.02;100.00;98482.81;15280632;19;20010;-76
2023/06/07 23:34:29;;;;;;;2.17;1.70;;;;;;;17.02;100.00;98481.94;15280930;19;20021;-76
2023/06/07 23:39:55;;;;;;;3.78;2.00;;;;;;;17.05;100.00;98481.56;15283520;19;20014;-76
2023/06/07 23:45:24;;;;;;;2.22;1.90;;;;;;;17.06;100.00;98475.91;15271745;19;20011;-77
2023/06/07 23:50:52;;;;;;;2.92;1.77;;;;;;;17.04;100.00;98474.44;15281515;19;20017;-77
2023/06/07 23:56:16;;;;;;;2.33;1.70;;;;;;;17.01;100.00;98477.53;15279780;19;20011;-78
